This is the latest recevied weather packets stored in our database for station/object KJ6LNH-1. If no packets are shown the sender has not sent any weather packets the latest 10 day(s).
| Time | Temp. | Humidity | Pressure | Rain* | Wind** | Luminosity | Snow |
|---|---|---|---|---|---|---|---|
| 1777692007 | 15.56° C | 69% | 1010.2 hPa | 0 mm | - | - | - |
| 1777691707 | 15.56° C | 68% | 1010.2 hPa | 0 mm | - | - | - |
| 1777691407 | 16.11° C | 68% | 1010.2 hPa | 0 mm | - | - | - |
| 1777691106 | 16.11° C | 67% | 1010 hPa | 0 mm | - | - | - |
| 1777690806 | 16.67° C | 65% | 1010 hPa | 0 mm | - | - | - |
| 1777690507 | 16.67° C | 63% | 1009.9 hPa | 0 mm | - | - | - |
| 1777690208 | 17.22° C | 62% | 1010 hPa | 0 mm | - | - | - |
| 1777689907 | 17.22° C | 61% | 1010 hPa | 0 mm | - | - | - |
| 1777689613 | 17.78° C | 61% | 1010.1 hPa | 0 mm | - | - | - |
| 1777689307 | 17.78° C | 60% | 1010.1 hPa | 0 mm | - | - | - |
| 1777689006 | 18.33° C | 59% | 1010 hPa | 0 mm | - | - | - |
| 1777688706 | 18.33° C | 57% | 1010 hPa | 0 mm | - | - | - |
| 1777674317 | 24.44° C | 48% | 1011.3 hPa | 0 mm | - | - | - |
| 1777673408 | 25° C | 47% | 1011.5 hPa | 0 mm | - | - | - |
| 1777673108 | 25° C | 47% | 1011.6 hPa | 0 mm | - | - | - |
| 1777672508 | 25° C | 46% | 1011.7 hPa | 0 mm | - | - | - |
| 1777667708 | 23.33° C | 49% | 1012.2 hPa | 0 mm | - | - | - |
| 1777667107 | 23.33° C | 50% | 1012.3 hPa | 0 mm | - | - | - |
| 1777666807 | 23.33° C | 50% | 1012.3 hPa | 0 mm | - | - | - |
| 1777666508 | 23.33° C | 50% | 1012.3 hPa | 0 mm | - | - | - |
| 1777665908 | 22.22° C | 52% | 1012.3 hPa | 0 mm | - | - | - |
| 1777665307 | 22.78° C | 52% | 1012.4 hPa | 0 mm | - | - | - |
| 1777664707 | 22.22° C | 52% | 1012.5 hPa | 0 mm | - | - | - |
| 1777664108 | 22.22° C | 52% | 1012.6 hPa | 0 mm | - | - | - |
| 1777663207 | 21.67° C | 53% | 1013 hPa | 0 mm | - | - | - |
* Rain latest hour (hover to see other rain measurements)
** Current wind speed in m/s (hover to see current wind gust speed)